Date,TemperatureHighF,TemperatureAvgF,TemperatureLowF,DewpointHighF,DewpointAvgF,DewpointLowF,HumidityHigh,HumidityAvg,HumidityLow,PressureMaxIn,PressureMinIn,WindSpeedMaxMPH,WindSpeedAvgMPH,GustSpeedMaxMPH,PrecipitationSumIn
2013-1-1,68.0,57.7,48.0,64.0,55.5,46.0,95,93,88,30.14,29.90,7,2,14,1.95
2013-1-2,48.0,43.2,41.0,46.0,40.2,36.0,94,89,83,30.26,30.11,6,2,15,0.04
2013-1-3,50.0,42.0,38.0,39.0,35.7,34.0,89,78,59,30.40,30.24,5,1,13,0.01
2013-1-4,52.0,44.5,37.0,38.0,35.0,31.0,86,70,46,30.50,30.32,3,1,10,0.00
2013-1-5,48.0,45.4,43.0,43.0,39.9,37.0,95,82,71,30.36,30.23,3,1,8,0.17
2013-1-6,54.0,46.6,43.0,47.0,43.5,39.0,95,89,75,30.30,30.20,6,1,11,1.57
2013-1-7,57.0,47.7,37.0,46.0,41.1,36.0,95,79,58,30.32,30.14,4,0,9,0.01
2013-1-8,62.0,55.8,50.0,61.0,52.2,42.0,95,88,75,30.17,30.01,5,1,9,1.56
2013-1-9,68.0,64.1,61.0,67.0,63.1,60.0,96,95,95,30.14,30.01,6,2,12,2.60
2013-1-10,70.0,65.1,63.0,69.0,64.1,62.0,96,96,95,30.11,29.93,8,1,22,5.88
2013-1-11,72.0,64.4,58.0,70.0,62.3,57.0,96,93,83,30.07,29.95,2,0,10,0.04
2013-1-12,77.0,72.5,70.0,71.0,69.3,68.0,95,90,80,30.00,29.85,3,1,12,0.00
2013-1-13,73.0,60.7,46.0,71.0,58.8,44.0,95,93,90,30.11,29.75,7,3,21,0.65
2013-1-14,46.0,41.4,36.0,45.0,39.8,34.0,95,94,89,30.16,30.05,7,2,17,0.38
2013-1-15,40.0,38.3,35.0,39.0,37.2,34.0,96,95,93,30.09,29.98,5,2,13,0.46
2013-1-16,38.0,36.2,34.0,37.0,35.0,33.0,96,95,92,30.21,30.05,5,2,11,0.50
2013-1-17,54.0,41.1,33.0,38.0,34.3,30.0,96,79,50,30.45,30.21,6,1,13,0.02
2013-1-18,56.0,42.1,31.0,40.0,34.4,30.0,96,77,40,30.53,30.38,3,0,5,0.00
2013-1-19,62.0,45.5,31.0,48.0,39.7,30.0,96,82,52,30.38,30.22,2,0,7,0.00
2013-1-20,64.0,47.9,34.0,51.0,41.4,33.0,96,81,46,30.27,30.14,3,0,7,0.00
2013-1-21,66.0,51.4,38.0,53.0,44.8,37.0,96,81,49,30.23,30.14,3,0,6,0.00
2013-1-22,65.0,50.5,40.0,49.0,43.3,37.0,95,78,54,30.35,30.22,2,0,6,0.00
2013-1-23,69.0,55.0,40.0,56.0,49.2,39.0,97,83,56,30.38,30.26,4,1,11,0.00
2013-1-24,72.0,60.8,49.0,63.0,56.6,48.0,96,87,71,30.32,30.20,4,1,10,0.01
2013-1-25,74.0,62.5,52.0,62.0,57.4,51.0,96,85,64,30.22,30.11,7,1,16,0.01
2013-1-26,74.0,61.2,50.0,67.0,56.8,49.0,96,86,59,30.23,30.14,4,0,8,0.01
2013-1-27,76.0,64.1,51.0,64.0,59.0,50.0,96,84,61,30.22,30.14,4,1,11,0.01
2013-1-28,76.0,67.4,61.0,68.0,63.7,59.0,94,88,73,30.20,30.06,3,1,9,0.00
2013-1-29,77.0,71.7,66.0,71.0,68.3,64.0,94,89,78,30.06,29.72,6,2,19,0.00
2013-1-30,73.0,55.9,38.0,70.0,44.9,31.0,95,69,40,30.19,29.69,6,3,18,0.50
2013-1-31,60.0,51.7,36.0,38.0,33.4,26.0,95,53,29,30.34,30.19,5,1,11,0.00
2013-2-1,63.0,49.9,41.0,45.0,41.5,37.0,93,75,47,30.40,30.29,3,0,7,0.00
2013-2-2,69.0,54.0,37.0,55.0,47.4,36.0,96,80,56,30.31,30.17,5,1,12,0.00
2013-2-3,68.0,55.2,42.0,55.0,44.3,33.0,96,72,29,30.29,30.10,3,0,9,0.00
2013-2-4,67.0,54.0,42.0,55.0,48.9,38.0,94,84,60,30.10,29.92,2,0,6,0.00
2013-2-5,70.0,60.7,54.0,64.0,58.0,53.0,95,91,79,30.03,29.91,2,0,8,0.04
2013-2-6,66.0,58.5,50.0,63.0,56.8,49.0,96,94,87,30.09,29.94,6,1,14,0.39
2013-2-7,70.0,60.4,55.0,62.0,57.9,54.0,96,91,73,29.98,29.84,10,1,15,1.03
2013-2-8,67.0,58.8,51.0,60.0,55.7,48.0,96,89,78,30.16,29.95,6,1,13,0.00
2013-2-9,67.0,58.2,52.0,59.0,54.0,49.0,93,86,74,30.19,29.97,5,2,10,0.00
2013-2-10,77.0,68.7,61.0,71.0,65.7,59.0,95,90,81,29.97,29.84,7,2,19,0.34
2013-2-11,64.0,56.7,53.0,63.0,55.5,52.0,96,95,91,30.14,29.95,7,2,17,1.94
2013-2-12,73.0,59.7,54.0,71.0,58.2,51.0,96,94,89,30.02,29.72,7,2,15,0.95
2013-2-13,57.0,50.7,39.0,52.0,45.4,38.0,95,83,61,30.08,29.89,6,2,13,0.07
2013-2-14,61.0,45.9,34.0,45.0,39.1,33.0,96,79,47,30.16,30.06,3,0,8,0.02
2013-2-15,65.0,49.8,35.0,47.0,40.2,34.0,96,72,39,30.22,30.09,6,1,14,0.00
2013-2-16,54.0,45.2,34.0,42.0,30.2,22.0,92,58,32,30.36,30.22,8,2,16,0.00
2013-2-17,64.0,47.3,30.0,48.0,38.1,28.0,95,73,46,30.31,30.19,4,1,12,0.00
2013-2-18,71.0,60.3,47.0,64.0,54.4,42.0,93,81,60,30.19,29.91,6,2,24,0.68
2013-2-19,64.0,55.5,45.0,62.0,44.4,32.0,94,68,33,30.24,29.96,7,2,16,0.78
2013-2-20,60.0,51.5,42.0,39.0,34.0,28.0,73,52,40,30.22,29.97,9,3,15,0.00
2013-2-21,72.0,63.7,53.0,69.0,56.5,35.0,94,78,49,29.97,29.70,7,4,21,0.23
2013-2-22,66.0,61.0,56.0,62.0,55.3,51.0,94,82,63,29.97,29.84,3,1,12,0.21
2013-2-23,64.0,55.0,49.0,54.0,50.0,45.0,93,83,67,29.97,29.87,4,1,9,0.00
2013-2-24,71.0,56.6,42.0,59.0,50.4,40.0,95,82,56,29.97,29.70,9,2,14,0.28
2013-2-25,69.0,63.3,54.0,68.0,59.4,37.0,95,88,45,29.72,29.40,8,2,20,2.17
2013-2-26,61.0,50.6,43.0,44.0,39.0,35.0,90,66,46,29.93,29.60,8,3,23,0.61
2013-2-27,68.0,54.9,41.0,52.0,43.6,37.0,95,69,37,30.09,29.92,5,2,14,0.00
2013-2-28,52.0,45.7,39.0,39.0,34.5,31.0,85,66,49,30.20,30.08,6,1,11,0.00
2013-3-1,59.0,46.5,37.0,40.0,34.5,28.0,89,66,32,30.19,30.09,7,1,14,0.00
2013-3-2,46.0,39.0,31.0,34.0,30.2,27.0,92,72,49,30.27,30.16,7,2,14,0.00
2013-3-3,60.0,41.9,25.0,38.0,31.1,24.0,95,70,36,30.29,30.09,3,0,7,0.00
2013-3-4,73.0,58.9,41.0,60.0,52.1,39.0,95,80,58,30.10,29.87,9,2,19,0.00
2013-3-5,71.0,63.7,52.0,64.0,51.1,31.0,91,67,33,30.24,29.87,8,3,15,0.00
2013-3-6,61.0,48.8,34.0,38.0,30.7,27.0,78,52,29,30.37,30.23,6,1,13,0.00
2013-3-7,65.0,48.3,33.0,39.0,34.9,31.0,91,64,29,30.34,30.22,3,0,6,0.00
2013-3-8,72.0,54.2,36.0,52.0,42.7,34.0,96,70,30,30.29,30.13,2,0,7,0.00
2013-3-9,72.0,61.6,51.0,63.0,56.6,48.0,93,84,72,30.13,29.89,4,1,14,0.00
2013-3-10,77.0,65.1,54.0,67.0,60.9,52.0,95,87,70,29.95,29.81,6,2,19,1.11
2013-3-11,59.0,50.5,41.0,53.0,40.5,36.0,95,70,42,30.05,29.93,7,2,15,1.28
2013-3-12,65.0,49.7,35.0,41.0,38.1,33.0,95,69,35,30.23,30.05,3,0,8,0.01
2013-3-13,66.0,52.3,39.0,43.0,37.7,33.0,94,62,30,30.42,30.23,6,1,14,0.00
2013-3-14,72.0,52.7,35.0,47.0,37.1,32.0,93,61,27,30.44,30.29,4,1,8,0.00
2013-3-15,74.0,57.9,42.0,56.0,48.5,40.0,95,75,36,30.30,30.11,7,2,16,0.00
2013-3-16,76.0,62.6,47.0,61.0,54.8,46.0,96,78,47,30.12,29.91,7,1,16,0.00
2013-3-17,78.0,66.5,56.0,67.0,61.7,55.0,96,85,63,29.94,29.78,5,1,12,0.00
2013-3-18,83.0,73.5,68.0,70.0,67.3,62.0,94,82,62,29.92,29.74,7,2,14,0.00
2013-3-19,76.0,64.5,51.0,63.0,50.4,45.0,85,62,40,30.01,29.91,5,2,10,0.00
2013-3-20,70.0,58.9,47.0,53.0,43.1,31.0,93,59,27,30.18,29.98,6,2,15,0.08
2013-3-21,69.0,55.2,43.0,48.0,41.8,35.0,87,64,35,30.05,29.81,3,0,10,0.02
2013-3-22,80.0,66.2,55.0,72.0,61.9,47.0,94,86,69,29.85,29.71,2,0,7,0.09
2013-3-23,71.0,68.5,65.0,69.0,67.3,63.0,96,95,92,29.78,29.55,2,0,6,0.06
2013-3-24,68.0,59.5,46.0,67.0,48.6,32.0,96,70,39,30.07,29.61,6,2,16,0.03
2013-3-25,59.0,47.1,37.0,33.0,27.7,23.0,73,49,27,30.29,30.06,6,3,15,0.00
2013-3-26,55.0,43.4,31.0,32.0,27.3,23.0,84,55,34,30.44,30.29,5,1,13,0.00
2013-3-27,66.0,47.1,30.0,40.0,33.2,28.0,95,64,29,30.44,30.24,2,0,5,0.00
2013-3-28,73.0,53.7,35.0,51.0,42.4,34.0,96,71,35,30.35,30.21,4,0,8,0.00
2013-3-29,78.0,59.8,43.0,55.0,46.8,36.0,96,69,23,30.29,30.16,4,0,10,0.00
2013-3-30,77.0,63.9,53.0,63.0,57.1,-99.9,96,83,54,30.19,30.01,5,1,15,0.00
2013-3-31,77.0,63.7,56.0,67.0,61.0,55.0,96,91,71,30.02,29.90,8,1,20,0.03
2013-4-1,78.0,63.5,54.0,64.0,57.2,53.0,96,82,52,30.08,29.95,4,0,8,0.03
2013-4-2,80.0,65.1,52.0,64.0,57.3,50.0,95,78,49,30.09,29.92,2,0,8,0.00
2013-4-3,67.0,56.3,50.0,63.0,54.8,48.0,96,94,83,30.03,29.73,5,2,15,2.37
2013-4-4,54.0,49.6,47.0,49.0,47.2,44.0,96,91,83,30.09,29.96,4,1,10,0.02
2013-4-5,68.0,54.2,43.0,54.0,46.9,41.0,94,78,50,30.19,30.07,4,1,10,0.01
2013-4-6,74.0,58.6,44.0,57.0,50.8,42.0,95,78,48,30.14,30.02,4,0,11,0.00
2013-4-7,79.0,66.8,53.0,64.0,59.1,51.0,95,78,55,30.06,29.93,4,1,11,0.00
2013-4-8,82.0,69.5,60.0,67.0,62.7,58.0,96,81,55,29.96,29.87,4,1,14,0.00
2013-4-9,84.0,74.4,66.0,74.0,69.6,63.0,95,86,71,29.93,29.85,4,1,16,0.00
2013-4-10,82.0,76.4,71.0,74.0,71.3,68.0,91,84,73,29.91,29.76,4,2,15,0.00
2013-4-11,75.0,60.5,49.0,71.0,57.3,48.0,95,90,76,29.85,29.66,5,1,15,1.05
2013-4-12,74.0,56.9,43.0,54.0,47.9,42.0,96,76,38,30.00,29.85,3,0,8,0.04
2013-4-13,81.0,64.0,47.0,56.0,51.1,46.0,95,67,37,30.02,29.84,2,0,7,0.00
2013-4-14,78.0,65.6,57.0,69.0,62.0,51.0,95,88,62,29.84,29.71,2,0,12,4.08
2013-4-15,86.0,72.5,61.0,75.0,68.5,60.0,96,87,65,29.91,29.78,2,0,8,0.02
2013-4-16,86.0,76.9,73.0,76.0,73.0,71.0,95,88,73,30.03,29.90,2,0,9,0.03
2013-4-17,87.0,78.3,72.0,76.0,72.6,70.0,95,84,66,30.02,29.88,3,1,10,0.02
2013-4-18,84.0,74.5,54.0,74.0,69.3,50.0,95,84,70,29.95,29.73,6,2,18,0.27
2013-4-19,60.0,52.6,46.0,51.0,41.3,35.0,94,67,46,30.19,29.94,7,2,18,0.28
2013-4-20,71.0,54.6,38.0,48.0,43.0,36.0,95,69,37,30.26,30.10,2,0,6,0.00
2013-4-21,77.0,58.4,42.0,53.0,48.0,41.0,96,72,38,30.20,30.08,2,0,9,0.00
2013-4-22,81.0,63.5,48.0,60.0,53.4,47.0,96,74,39,30.12,29.98,2,0,6,0.00
2013-4-23,85.0,71.6,59.0,71.0,66.2,58.0,96,84,62,30.03,29.92,4,0,10,0.00
2013-4-24,71.0,62.5,55.0,69.0,59.8,51.0,95,91,83,30.20,29.93,6,2,13,1.45
2013-4-25,73.0,60.6,52.0,59.0,52.4,49.0,92,76,51,30.32,30.19,3,1,8,0.15
2013-4-26,83.0,67.0,52.0,69.0,60.3,48.0,95,80,62,30.26,30.15,1,0,7,0.00
2013-4-27,84.0,73.3,68.0,72.0,68.4,66.0,95,85,58,30.16,30.00,2,0,8,0.04
2013-4-28,77.0,70.4,63.0,69.0,66.6,61.0,95,88,71,30.03,29.91,2,0,8,0.05
2013-4-29,87.0,70.8,61.0,68.0,64.3,60.0,96,82,42,29.96,29.84,1,0,6,0.01
2013-4-30,76.0,68.4,63.0,71.0,66.3,62.0,96,93,82,29.88,29.80,1,0,7,0.03
2013-5-1,86.0,72.0,64.0,70.0,66.3,62.0,96,83,51,29.89,29.80,5,0,11,0.96
2013-5-2,75.0,67.8,63.0,68.0,64.6,62.0,96,89,75,29.97,29.85,4,1,12,0.96
2013-5-3,67.0,53.7,46.0,65.0,48.8,43.0,95,84,63,30.05,29.95,5,2,13,0.02
2013-5-4,75.0,57.6,39.0,54.0,45.4,38.0,96,69,32,30.04,29.86,4,0,8,0.01
2013-5-5,65.0,55.8,47.0,54.0,45.7,42.0,92,70,49,30.05,29.90,5,1,12,0.00
2013-5-6,77.0,60.4,44.0,58.0,50.6,43.0,96,73,46,30.06,29.93,3,0,8,0.00
2013-5-7,83.0,71.3,55.0,63.0,58.6,54.0,95,67,44,30.05,29.97,2,0,7,0.00
2013-5-8,86.0,69.8,55.0,65.0,60.2,54.0,96,75,44,30.09,30.01,2,0,9,0.00
2013-5-9,82.0,71.5,59.0,71.0,66.8,58.0,96,86,68,30.08,29.95,1,0,10,0.00
2013-5-10,73.0,66.8,62.0,71.0,63.5,-99.9,96,93,84,30.04,29.83,2,0,11,2.78
2013-5-11,79.0,68.7,62.0,71.0,65.0,-99.9,96,90,74,30.07,29.88,2,0,7,1.29
2013-5-12,79.0,67.7,55.0,66.0,60.6,53.0,96,80,55,30.17,30.06,3,0,9,0.37
2013-5-13,83.0,64.7,49.0,58.0,52.2,48.0,96,69,33,30.29,30.16,1,0,7,0.00
2013-5-14,88.0,70.0,53.0,63.0,56.5,52.0,96,68,33,30.26,30.14,1,0,5,0.00
2013-5-15,86.0,68.4,56.0,69.0,60.9,55.0,96,79,44,30.17,29.99,1,0,8,0.00
2013-5-16,86.0,67.6,63.0,71.0,45.3,-99.9,95,80,52,30.01,29.88,2,0,9,0.00
2013-5-17,89.0,76.9,68.0,75.0,66.5,-99.9,96,82,60,29.99,29.91,2,0,8,0.00
2013-5-18,91.0,79.8,73.0,76.0,72.4,70.0,94,80,56,30.03,29.94,1,0,7,0.00
2013-5-19,91.0,79.8,72.0,75.0,72.9,70.0,95,81,59,29.97,29.90,2,0,10,0.00
2013-5-20,91.0,81.1,75.0,78.0,74.5,73.0,93,81,62,29.97,29.85,2,0,10,0.00
2013-5-21,91.0,80.7,73.0,76.0,74.4,71.0,95,82,59,29.91,29.78,2,0,15,0.02
2013-5-22,84.0,75.0,68.0,76.0,71.4,67.0,96,89,73,29.95,29.81,5,0,13,1.24
2013-5-23,93.0,77.3,66.0,79.0,71.4,64.0,96,84,54,30.06,29.94,4,0,13,0.73
2013-5-24,92.0,76.4,65.0,77.0,70.1,64.0,96,82,56,30.14,30.02,1,0,5,0.73
2013-5-25,90.0,77.4,69.0,75.0,70.7,66.0,95,81,61,30.19,30.09,1,0,6,0.00
2013-5-26,91.0,76.9,69.0,76.0,70.8,67.0,95,82,53,30.14,30.06,1,0,10,0.06
2013-5-27,92.0,77.8,68.0,76.0,69.9,65.0,96,79,51,30.09,29.98,2,0,9,0.01
2013-5-28,90.0,78.5,69.0,73.0,69.9,67.0,94,77,49,30.03,29.94,2,0,10,0.01
2013-5-29,92.0,78.7,67.0,76.0,71.4,65.0,96,80,54,29.97,29.87,2,0,8,0.00
2013-5-30,90.0,80.0,72.0,78.0,73.8,70.0,96,83,62,29.95,29.87,1,0,10,0.00
2013-5-31,90.0,80.3,74.0,79.0,75.0,72.0,95,85,63,29.96,29.89,2,0,9,0.10
2013-6-1,95.0,82.2,74.0,79.0,74.2,-99.9,95,81,59,29.93,29.87,2,0,11,0.01
2013-6-2,85.0,76.8,72.0,78.0,73.2,70.0,96,90,72,29.97,29.85,1,0,7,0.54
2013-6-3,88.0,78.4,71.0,76.0,72.6,69.0,96,83,63,29.93,29.82,2,0,7,0.54
2013-6-4,97.0,82.1,70.0,79.0,73.6,68.0,95,77,52,29.92,29.81,1,0,5,0.00
2013-6-5,94.0,82.8,73.0,81.0,75.7,71.0,96,81,60,29.90,29.76,2,0,4,0.00
2013-6-6,90.0,75.9,69.0,78.0,72.6,68.0,96,90,67,29.86,29.70,1,0,7,0.85
2013-6-7,86.0,75.4,69.0,74.0,70.0,68.0,96,84,59,29.89,29.81,2,0,6,0.25
2013-6-8,92.0,74.7,67.0,76.0,69.8,65.0,96,86,56,29.93,29.86,5,0,12,0.01
2013-6-9,93.0,76.6,69.0,78.0,71.5,67.0,96,85,59,29.96,29.87,2,0,6,0.02
2013-6-10,93.0,80.6,70.0,79.0,74.3,68.0,96,83,60,30.00,29.94,1,0,7,0.01
2013-6-11,94.0,82.8,73.0,79.0,75.4,72.0,96,80,58,30.07,29.98,1,0,3,0.00
2013-6-12,95.0,82.2,72.0,79.0,75.2,70.0,96,81,54,30.08,29.99,1,0,4,0.00
2013-6-13,94.0,83.0,73.0,79.0,75.7,71.0,96,81,58,30.06,29.89,1,0,6,0.00
2013-6-14,97.0,83.8,76.0,83.0,77.7,73.0,95,83,60,29.95,29.84,2,0,7,0.06
2013-6-15,96.0,82.8,72.0,81.0,75.2,69.0,92,79,57,29.98,29.90,1,0,4,0.03
2013-6-16,95.0,84.1,76.0,80.0,76.5,74.0,95,79,60,30.03,29.93,1,0,7,0.00
2013-6-17,94.0,81.9,72.0,79.0,74.9,70.0,96,81,57,30.01,29.90,2,0,7,0.06
2013-6-18,94.0,82.6,73.0,79.0,74.2,70.0,94,77,56,29.99,29.88,3,0,10,0.06
2013-6-19,85.0,77.0,72.0,78.0,73.5,70.0,95,90,76,30.03,29.93,2,0,5,0.49
2013-6-20,95.0,80.2,73.0,80.0,74.6,72.0,96,85,55,30.10,29.99,1,0,4,0.02
2013-6-22,96.0,89.8,81.0,78.0,75.1,71.0,80,63,45,30.09,29.97,0,0,3,0.00
2013-6-23,96.0,78.9,70.0,79.0,73.8,68.0,96,86,58,30.05,29.98,1,0,7,0.01
2013-6-24,92.0,80.8,72.0,80.0,74.7,70.0,96,83,61,30.10,30.02,1,0,7,0.01
2013-6-25,95.0,81.6,71.0,79.0,74.1,69.0,96,80,58,30.07,29.97,0,0,7,0.00
2013-6-26,97.0,83.8,71.0,79.0,74.6,70.0,96,76,51,30.04,29.93,1,0,6,0.00
2013-6-27,97.0,84.1,72.0,80.0,75.7,70.0,96,78,56,30.01,29.91,1,0,6,0.18
2013-6-28,96.0,85.0,76.0,79.0,76.5,74.0,95,78,52,29.95,29.78,2,0,8,0.18
2013-6-29,98.0,83.2,75.0,80.0,77.0,73.0,95,83,53,29.82,29.68,1,0,6,0.40
2013-6-30,92.0,81.2,72.0,74.0,69.2,61.0,96,71,40,29.80,29.72,3,0,9,0.40
2013-7-1,87.0,76.7,65.0,70.0,67.3,64.0,95,75,52,29.93,29.80,3,0,7,0.00
2013-7-2,89.0,76.4,65.0,72.0,66.8,64.0,96,75,46,29.99,29.91,1,0,6,0.00
2013-7-3,91.0,77.2,66.0,72.0,67.2,64.0,93,74,46,30.02,29.92,3,0,7,0.00
2013-7-4,91.0,78.8,68.0,76.0,69.7,66.0,95,76,48,29.97,29.90,2,0,8,0.00
2013-7-5,92.0,77.2,70.0,76.0,72.0,67.0,95,86,60,29.98,29.91,1,0,9,0.22
2013-7-6,88.0,74.6,69.0,79.0,71.8,68.0,96,91,71,29.98,29.91,0,0,5,0.09
2013-7-7,90.0,78.5,74.0,81.0,74.8,71.0,96,89,69,30.06,29.95,1,0,6,0.33
2013-7-8,95.0,78.5,71.0,80.0,72.6,-99.9,96,86,59,30.14,30.04,1,0,4,1.70
2013-7-9,95.0,82.8,72.0,79.0,75.8,71.0,97,81,55,30.17,30.06,1,0,5,1.70
2013-7-10,97.0,82.9,73.0,79.0,73.3,-99.9,96,77,54,30.10,29.95,1,0,4,0.00
2013-7-11,94.0,79.3,73.0,79.0,74.5,71.0,96,87,58,30.00,29.89,2,0,9,1.07
2013-7-12,95.0,81.2,72.0,81.0,74.8,71.0,96,82,54,29.95,29.84,2,0,5,0.18
2013-7-13,91.0,79.9,69.0,75.0,70.0,62.0,92,73,40,29.94,29.86,3,0,7,0.01
2013-7-14,93.0,78.2,69.0,79.0,72.5,67.0,95,84,52,29.97,29.88,0,0,7,0.00
2013-7-15,86.0,75.5,71.0,79.0,72.5,69.0,96,91,72,30.09,29.95,1,0,9,0.32
2013-7-16,90.0,78.6,72.0,78.0,74.2,70.0,95,87,67,30.14,30.05,1,0,7,0.05
2013-7-17,92.0,80.2,74.0,79.0,75.1,72.0,96,86,61,30.20,30.09,2,0,7,0.13
2013-7-18,89.0,78.2,71.0,78.0,72.9,69.0,96,85,65,30.15,30.00,1,0,5,0.02
2013-7-19,93.0,77.4,69.0,78.0,72.9,68.0,96,87,59,30.05,29.93,1,0,9,0.18
2013-7-20,95.0,78.6,71.0,78.0,72.4,-99.9,96,84,55,29.98,29.89,1,0,8,0.41
2013-7-21,88.0,78.7,73.0,78.0,74.2,71.0,96,87,71,30.04,29.95,1,0,9,0.12
2013-7-22,95.0,82.6,73.0,82.0,76.9,71.0,96,84,64,30.05,29.97,1,0,10,0.10
2013-7-23,95.0,83.4,74.0,80.0,76.4,73.0,96,81,55,30.04,29.91,1,0,8,0.10
2013-7-24,94.0,83.4,76.0,78.0,75.8,74.0,95,80,56,29.98,29.87,2,0,10,0.00
2013-7-25,91.0,81.8,75.0,79.0,75.4,73.0,95,82,63,30.04,29.92,1,0,7,0.01
2013-7-26,95.0,82.5,73.0,80.0,75.5,71.0,96,81,57,30.06,29.93,1,0,9,0.00
2013-7-27,88.0,80.1,76.0,80.0,76.5,74.0,95,89,71,29.96,29.85,2,0,10,0.30
2013-7-28,95.0,80.4,72.0,80.0,75.0,70.0,95,85,60,30.00,29.89,1,0,4,0.01
2013-7-29,97.0,83.3,74.0,79.0,74.9,72.0,96,79,50,30.09,29.99,1,0,5,0.00
2013-7-30,97.0,83.2,72.0,79.0,75.3,70.0,96,79,55,30.14,30.03,1,0,4,0.00
2013-7-31,98.0,83.1,73.0,80.0,75.5,71.0,95,80,52,30.09,29.95,1,0,8,0.00
2013-8-1,95.0,83.4,75.0,81.0,76.4,73.0,95,81,55,30.02,29.89,1,0,6,0.00
2013-8-2,99.0,85.3,77.0,81.0,77.3,75.0,95,79,52,29.99,29.91,1,0,5,0.00
2013-8-3,97.0,84.7,74.0,80.0,76.6,72.0,95,79,54,30.05,29.97,1,0,5,0.00
2013-8-4,99.0,82.4,74.0,81.0,76.2,72.0,96,84,52,30.09,29.98,1,0,6,2.25
2013-8-5,96.0,82.5,75.0,81.0,77.3,74.0,96,85,57,30.05,29.93,1,0,8,0.65
2013-8-6,99.0,84.9,75.0,80.0,76.7,73.0,95,79,48,29.99,29.88,1,0,7,0.05
2013-8-7,98.0,84.8,74.0,81.0,76.5,72.0,95,79,50,29.97,29.86,0,0,5,0.00
2013-8-8,98.0,84.1,73.0,80.0,75.8,71.0,95,79,49,29.96,29.85,1,0,5,0.00
2013-8-9,97.0,83.1,75.0,80.0,76.5,73.0,95,82,54,29.98,29.89,1,0,7,0.00
2013-8-10,95.0,82.1,76.0,81.0,76.4,73.0,95,84,60,30.05,29.97,1,0,9,0.05
2013-8-11,92.0,79.7,74.0,81.0,75.7,72.0,95,89,63,30.09,30.02,2,0,8,0.32
2013-8-12,89.0,80.2,74.0,81.0,76.7,72.0,96,90,75,30.10,29.99,1,0,5,0.66
2013-8-13,97.0,81.9,73.0,81.0,74.4,-99.9,96,83,55,30.03,29.89,2,0,9,0.54
2013-8-14,84.0,75.5,73.0,80.0,70.2,-99.9,95,92,89,29.97,29.91,1,0,4,0.82
2013-8-15,86.0,71.8,71.0,77.0,60.6,-99.9,96,85,67,30.00,29.91,1,0,4,0.05
2013-8-16,89.0,76.0,70.0,76.0,66.6,-99.9,95,79,53,29.98,29.91,2,0,7,0.00
2013-8-17,88.0,76.2,66.0,75.0,68.2,-99.9,93,79,55,29.97,29.89,3,0,8,0.00
2013-8-18,90.0,77.1,70.0,74.0,70.8,68.0,95,83,60,30.02,29.94,3,0,7,0.00
2013-8-19,85.0,72.0,68.0,75.0,60.4,-99.9,96,87,72,30.05,29.96,2,0,5,0.00
2013-8-20,91.0,75.5,71.0,79.0,71.3,-99.9,96,91,63,30.04,29.96,1,0,7,1.01
2013-8-21,95.0,78.5,71.0,80.0,73.7,70.0,96,87,55,30.09,30.01,1,0,12,0.07
2013-8-22,93.0,81.0,72.0,80.0,75.0,70.0,96,84,58,30.07,29.95,1,0,5,0.02
2013-8-23,93.0,81.3,73.0,79.0,74.8,71.0,96,82,61,30.00,29.89,2,0,6,0.00
2013-8-24,87.0,77.6,72.0,78.0,71.9,-99.9,96,85,70,30.06,29.95,3,0,8,0.04
2013-8-25,86.0,77.5,72.0,79.0,73.9,70.0,95,89,77,30.13,30.04,1,0,7,0.09
2013-8-26,92.0,77.8,73.0,79.0,73.8,71.0,95,89,61,30.17,30.09,1,0,6,0.22
2013-8-27,93.0,77.2,71.0,76.0,72.0,70.0,96,86,49,30.12,30.05,1,0,5,0.22
2013-8-28,92.0,84.6,72.0,76.0,72.8,69.0,94,69,55,30.07,29.98,1,0,5,0.00
2013-8-29,94.0,78.6,67.0,76.0,71.4,66.0,96,80,53,30.07,29.96,1,0,3,0.00
2013-8-30,96.0,79.3,69.0,75.0,71.2,68.0,96,79,43,30.04,29.91,0,0,3,0.00
2013-8-31,94.0,79.6,70.0,78.0,71.1,-99.9,96,79,54,29.98,29.84,1,0,4,0.00
2013-9-1,98.0,82.6,73.0,79.0,74.8,71.0,96,79,51,29.94,29.82,1,0,5,0.00
2013-9-2,98.0,82.2,73.0,79.0,74.4,71.0,96,80,47,29.97,29.84,1,0,5,0.00
2013-9-3,95.0,80.6,74.0,80.0,75.3,72.0,95,85,57,29.97,29.88,1,0,5,0.25
2013-9-4,97.0,80.3,72.0,79.0,73.9,70.0,96,83,52,30.04,29.93,1,0,12,0.23
2013-9-5,96.0,79.7,72.0,79.0,73.8,70.0,96,85,54,30.09,29.99,1,0,7,0.13
2013-9-6,95.0,80.3,72.0,80.0,74.2,71.0,96,84,54,30.09,29.96,2,0,6,0.13
2013-9-7,95.0,78.8,72.0,78.0,70.9,-99.9,95,81,51,30.04,29.93,1,0,5,0.00
2013-9-8,94.0,77.9,68.0,76.0,70.5,67.0,96,81,45,30.00,29.91,1,0,6,0.00
2013-9-9,94.0,78.9,67.0,76.0,70.9,66.0,96,79,46,30.03,29.94,1,0,6,0.00
2013-9-10,93.0,78.2,69.0,78.0,72.7,68.0,96,85,59,30.09,29.99,2,0,6,0.04
2013-9-11,93.0,80.2,71.0,77.0,72.7,69.0,96,80,52,30.09,29.99,2,0,6,0.01
2013-9-12,95.0,79.9,69.0,75.0,70.5,68.0,96,77,43,30.04,29.90,2,0,6,0.01
2013-9-13,96.0,80.9,70.0,76.0,71.8,68.0,96,77,46,29.93,29.79,2,0,6,0.05
2013-9-14,92.0,79.2,72.0,76.0,71.1,-99.9,95,80,57,29.95,29.85,1,0,8,0.05
2013-9-15,96.0,78.2,70.0,76.0,71.5,68.0,95,83,48,30.03,29.93,1,0,6,0.00
2013-9-16,94.0,80.3,70.0,78.0,72.4,68.0,96,80,47,30.04,29.97,1,0,6,0.00
2013-9-17,95.0,79.9,69.0,77.0,72.2,68.0,96,80,48,30.06,29.93,1,0,11,0.00
2013-9-18,78.0,73.2,71.0,74.0,70.8,69.0,95,92,88,29.99,29.97,0,0,1,0.00
2013-9-19,93.0,79.1,74.0,79.0,74.5,72.0,95,87,62,30.00,29.91,2,0,13,0.39
2013-9-20,86.0,81.1,77.0,81.0,78.0,75.0,95,91,81,29.91,29.80,1,0,7,0.33
2013-9-21,77.0,38.5,77.0,75.0,-12.5,-99.9,95,48,95,29.78,29.76,0,0,3,0.00
2013-9-22,83.0,72.5,66.0,70.0,65.4,62.0,96,80,59,29.82,29.74,2,0,7,0.15
2013-9-23,91.0,74.8,63.0,78.0,69.3,61.0,95,84,63,29.82,29.75,0,0,5,0.03
2013-9-24,92.0,83.0,73.0,81.0,76.1,71.0,95,81,63,29.83,29.76,4,0,12,0.01
2013-9-25,92.0,80.5,64.0,74.0,66.1,58.0,96,66,33,29.85,29.76,2,0,6,0.01
2013-9-26,92.0,73.2,60.0,70.0,64.3,59.0,96,78,41,29.93,29.81,1,0,4,0.00
2013-9-27,91.0,74.9,63.0,72.0,66.5,62.0,96,78,48,30.00,29.91,1,0,4,0.00
2013-9-28,90.0,76.7,67.0,75.0,68.2,-99.9,96,79,52,30.04,29.96,0,0,5,0.00
2013-9-29,87.0,74.9,69.0,75.0,70.6,67.0,95,88,62,30.01,29.91,0,0,5,0.24
2013-9-30,85.0,76.0,72.0,78.0,73.1,70.0,96,92,78,29.92,29.85,1,0,5,0.38
2013-10-1,76.0,73.2,72.0,74.0,71.2,70.0,95,94,92,29.99,29.96,0,0,3,0.00
2013-10-2,90.0,78.3,71.0,77.0,72.8,69.0,96,85,57,30.02,29.92,1,0,5,0.00
2013-10-3,90.0,77.7,69.0,78.0,73.1,68.0,96,87,63,30.00,29.90,2,0,4,0.03
2013-10-4,88.0,77.9,74.0,80.0,74.3,72.0,95,90,71,29.99,29.91,1,0,11,0.13
2013-10-5,88.0,76.8,72.0,79.0,73.8,70.0,96,92,71,29.96,29.86,1,0,6,0.28
2013-10-6,77.0,70.0,56.0,73.0,63.2,49.0,96,81,52,29.99,29.85,5,1,11,0.30
2013-10-7,75.0,62.5,53.0,58.0,54.4,51.0,95,77,51,30.07,29.98,3,1,9,0.00
2013-10-8,77.0,62.3,52.0,60.0,55.9,51.0,96,82,51,30.08,29.98,2,0,6,0.00
2013-10-9,88.0,64.9,51.0,64.0,57.0,50.0,96,79,41,30.09,30.00,1,0,3,0.00
2013-10-10,82.0,65.6,54.0,70.0,61.6,53.0,96,87,59,30.10,29.98,2,0,5,0.01
2013-10-11,90.0,71.7,57.0,75.0,66.4,56.0,96,85,56,30.02,29.92,0,0,5,0.01
2013-10-12,90.0,74.2,66.0,77.0,68.8,-99.9,96,86,61,30.10,29.95,1,0,8,2.08
2013-10-13,85.0,74.7,69.0,77.0,71.5,68.0,96,90,71,30.15,30.01,1,0,4,2.08
2013-10-14,87.0,74.9,68.0,74.0,69.1,66.0,96,84,55,30.10,29.99,1,0,6,0.00
2013-10-15,86.0,73.0,65.0,75.0,69.4,64.0,96,89,63,30.02,29.91,1,0,5,0.01
2013-10-16,88.0,75.7,68.0,75.0,71.2,67.0,96,87,62,29.97,29.87,2,0,5,0.02
2013-10-17,72.0,65.1,56.0,70.0,62.8,55.0,96,92,84,30.03,29.92,3,1,7,0.02
2013-10-18,76.0,62.6,53.0,62.0,57.6,52.0,97,85,55,30.04,29.91,2,0,7,0.04
2013-10-19,72.0,62.8,56.0,63.0,58.5,-99.9,96,88,73,30.06,29.91,4,1,10,0.52
2013-10-20,77.0,59.2,48.0,60.0,53.7,47.0,96,84,50,30.09,29.97,1,0,4,0.01
2013-10-21,73.0,61.8,53.0,67.0,59.5,52.0,96,92,79,30.07,29.90,0,0,3,0.01
2013-10-22,74.0,63.4,54.0,67.0,60.7,53.0,96,91,75,30.04,29.95,3,0,8,0.01
2013-10-23,76.0,60.3,50.0,60.0,53.4,49.0,96,81,47,30.13,30.04,2,0,6,0.01
2013-10-24,82.0,63.0,48.0,63.0,54.8,47.0,96,78,46,30.21,30.11,2,0,4,0.01
2013-10-25,69.0,59.9,49.0,57.0,49.7,47.0,94,71,48,30.38,30.20,3,0,7,0.00
2013-10-26,79.0,57.5,43.0,58.0,48.2,-99.9,96,77,40,30.30,30.13,1,0,4,0.00
2013-10-27,75.0,60.7,49.0,68.0,58.5,48.0,96,92,78,30.12,30.01,1,0,7,0.02
2013-10-28,83.0,67.9,57.0,73.0,63.4,-99.9,96,89,67,30.16,30.03,1,0,4,0.01
2013-10-29,84.0,70.0,60.0,71.0,65.4,59.0,96,86,62,30.19,30.11,2,0,8,0.01
2013-10-30,83.0,71.0,63.0,74.0,67.5,62.0,96,89,69,30.15,29.96,2,0,10,0.01
2013-10-31,77.0,70.5,62.0,73.0,68.2,61.0,96,92,85,29.96,29.79,3,1,15,2.14
2013-11-1,74.0,63.2,53.0,62.0,58.2,51.0,96,85,52,29.96,29.84,2,0,6,0.42
2013-11-2,70.0,58.9,51.0,56.0,48.6,-99.9,96,74,40,30.19,29.92,5,1,10,0.00
2013-11-3,66.0,52.4,42.0,50.0,46.0,41.0,95,81,52,30.24,30.11,1,0,6,0.00
2013-11-4,75.0,60.3,44.0,62.0,54.6,43.0,96,83,62,30.19,30.09,0,0,5,0.00
2013-11-5,76.0,67.3,60.0,69.0,63.7,59.0,95,89,77,30.14,30.05,2,0,11,0.00
2013-11-6,82.0,70.7,63.0,73.0,67.4,62.0,95,90,72,30.14,30.01,3,0,8,0.03
2013-11-7,64.0,55.2,48.0,62.0,47.9,42.0,95,78,54,30.34,30.14,6,2,14,0.02
2013-11-8,65.0,51.3,42.0,48.0,43.0,40.0,95,76,45,30.35,30.20,2,0,8,0.00
2013-11-9,70.0,55.3,43.0,55.0,47.6,-99.9,96,79,52,30.23,30.15,1,0,4,0.00
2013-11-10,74.0,60.9,51.0,61.0,53.7,49.0,93,78,56,30.27,30.17,3,0,7,0.00
2013-11-11,73.0,58.2,46.0,58.0,51.7,45.0,96,81,52,30.25,30.14,1,0,3,0.00
2013-11-12,71.0,53.0,39.0,59.0,46.7,31.0,96,80,63,30.53,30.19,7,2,19,0.00
2013-11-13,52.0,41.7,32.0,33.0,30.0,27.0,86,65,38,30.56,30.41,4,1,10,0.00
2013-11-14,64.0,48.1,31.0,52.0,41.5,29.0,94,80,56,30.41,30.11,2,0,4,0.00
2013-11-15,76.0,63.7,53.0,66.0,59.3,50.0,94,86,69,30.11,29.94,1,0,4,0.00
2013-11-16,80.0,70.4,66.0,72.0,66.0,-99.9,96,88,71,30.01,29.89,3,0,9,0.00
2013-11-17,82.0,75.1,70.0,76.0,72.3,68.0,95,92,81,29.94,29.84,4,1,12,0.02
2013-11-18,76.0,69.8,57.0,72.0,56.8,43.0,96,67,39,30.11,29.94,3,0,12,0.02
2013-11-19,65.0,55.3,46.0,45.0,40.2,34.0,81,59,33,30.17,30.05,1,0,7,0.02
2013-11-20,72.0,53.0,39.0,54.0,42.3,35.0,92,71,33,30.11,29.99,1,0,4,0.00
2013-11-21,75.0,66.4,56.0,70.0,64.4,54.0,96,93,85,30.14,30.06,1,0,6,0.00
2013-11-22,70.0,66.7,64.0,69.0,65.4,63.0,96,95,91,30.23,30.11,3,0,8,0.11
2013-11-23,66.0,51.1,44.0,65.0,48.6,-99.9,96,93,90,30.37,30.17,5,2,15,0.06
2013-11-24,51.0,43.4,38.0,41.0,34.2,31.0,89,71,50,30.41,30.28,4,1,12,0.05
2013-11-25,44.0,40.7,38.0,43.0,36.2,31.0,96,84,66,30.32,29.92,3,1,10,0.59
2013-11-26,44.0,41.1,39.0,43.0,40.0,37.0,96,95,92,30.14,29.83,5,2,12,0.99
2013-11-27,45.0,37.8,28.0,38.0,32.0,26.0,95,81,53,30.42,30.14,5,1,13,0.12
2013-11-28,46.0,33.4,24.0,32.0,27.8,23.0,96,82,52,30.49,30.40,1,0,3,0.00
2013-11-29,57.0,38.4,25.0,37.0,30.3,24.0,96,77,38,30.53,30.41,1,0,5,0.01
2013-11-30,62.0,41.2,27.0,42.0,30.7,-99.9,96,74,26,30.44,30.25,1,0,3,0.01
2013-12-1,70.0,52.1,33.0,54.0,44.4,31.0,94,78,50,30.27,29.97,2,0,6,0.00
2013-12-2,75.0,64.4,56.0,65.0,60.1,53.0,95,87,69,29.99,29.73,6,1,16,0.00
2013-12-3,78.0,69.2,60.0,69.0,65.6,59.0,96,89,70,29.77,29.68,6,1,13,0.00
2013-12-4,80.0,73.3,70.0,73.0,70.0,68.0,95,90,77,29.88,29.77,3,1,11,0.00
2013-12-5,80.0,74.4,59.0,73.0,70.9,55.0,95,90,76,29.97,29.86,4,1,11,0.00
2013-12-6,57.0,44.8,38.0,55.0,43.6,36.0,96,95,92,30.28,29.93,6,2,14,0.32
2013-12-7,38.0,34.1,33.0,36.0,31.3,-99.9,96,93,90,30.36,30.25,6,2,16,0.01
2013-12-8,42.0,37.8,34.0,41.0,36.8,33.0,96,96,96,30.27,30.04,3,0,6,0.89
2013-12-9,46.0,42.9,38.0,45.0,41.9,37.0,96,96,95,30.19,30.06,4,1,12,0.14
2013-12-10,46.0,38.7,34.0,38.0,34.9,31.0,96,87,69,30.40,30.19,6,2,18,0.12
2013-12-11,48.0,40.6,31.0,42.0,36.7,30.0,96,86,73,30.45,30.33,3,0,6,0.00
2013-12-12,52.0,41.0,34.0,39.0,34.8,30.0,94,79,56,30.53,30.35,4,0,9,0.00
2013-12-13,61.0,47.1,31.0,57.0,41.8,29.0,93,82,69,30.35,29.88,1,0,8,0.00
2013-12-14,66.0,58.3,47.0,64.0,54.5,-99.9,96,89,84,30.15,29.83,7,2,15,0.74
2013-12-15,49.0,42.0,31.0,43.0,36.7,30.0,95,82,66,30.32,30.15,5,2,13,0.38
2013-12-16,59.0,40.7,28.0,44.0,34.5,27.0,97,82,45,30.36,30.24,1,0,6,0.00
2013-12-17,63.0,43.5,30.0,49.0,37.5,29.0,97,82,45,30.35,30.24,2,0,7,0.01
2013-12-18,67.0,48.7,35.0,55.0,41.9,34.0,97,80,47,30.35,30.20,1,0,6,0.01
2013-12-19,74.0,60.5,41.0,63.0,54.7,40.0,96,83,57,30.20,29.98,3,0,15,0.00
2013-12-20,77.0,70.9,66.0,70.0,67.3,63.0,93,89,76,30.01,29.88,4,1,14,0.00
2013-12-21,77.0,70.1,62.0,72.0,66.6,-99.9,96,90,84,29.88,29.66,6,2,22,0.45
2013-12-22,66.0,59.8,45.0,63.0,56.8,41.0,96,90,63,30.23,29.80,5,1,11,0.46
2013-12-23,47.0,40.6,31.0,41.0,35.0,27.0,92,81,63,30.51,30.22,6,2,14,0.01
2013-12-24,50.0,35.7,24.0,37.0,30.7,23.0,96,83,58,30.56,30.37,3,0,10,0.00
2013-12-25,49.0,36.6,27.0,36.0,31.0,26.0,96,82,50,30.41,30.32,3,0,6,0.00
2013-12-26,57.0,43.9,30.0,41.0,35.4,28.0,95,74,44,30.41,30.28,2,0,7,0.00
2013-12-27,54.0,47.0,42.0,41.0,38.7,37.0,86,74,56,30.44,30.30,3,0,7,0.00
2013-12-28,47.0,44.4,43.0,46.0,41.1,-99.9,96,91,72,30.30,30.01,2,0,6,0.49
2013-12-29,60.0,45.0,32.0,50.0,40.5,31.0,97,86,54,30.13,30.01,1,0,4,0.01
2013-12-30,51.0,45.6,40.0,47.0,43.2,39.0,95,91,86,30.35,30.11,3,0,7,0.00
2013-12-31,45.0,41.8,38.0,41.0,38.1,35.0,92,87,79,30.42,30.31,2,0,7,0.00
2014-1-1,58.0,50.1,43.0,54.0,48.0,40.0,96,92,83,30.30,30.02,1,0,5,0.06
2014-1-2,56.0,48.7,38.0,55.0,40.6,28.0,96,74,52,30.39,29.98,7,2,19,0.17